»·PEaware :: CGFWS KBLI-KBFI

CGFWS :: KBLI-KBFI

FLIGHT INFORMATION

Flight Status: Arrived
Operator: Unknown
More flights by this operator :: More flights under this callsign
Pilot: Anonymous 35050 (35050)
Aircraft: CESSNA 182 SKYLANE
(C182)
More flights by this aircraft type
Origin: KBLI Bellingham Intl
United States
Destination: KBFI Boeing Field/King Co Intl
United States
More flights between these airports :: More routes between these airports
Route: KIENO6 CVV LOFAL
File this flight plan on PilotEdge
Remarks:
Altitude:
(Current/Filed)
5,000ft
Speed:
(Current/Filed)
130kts
Departed: 12-Feb-23 06:50 PM
Arrived: 12-Feb-23 07:29 PM
Distance/Time
Traveled:
76nm/0:38
Distance/Time
To Go:
Arrived

Flight Plot

Page will automatically refresh every two minutes.

Flight plan parsing failed; only flown route is shown


Map Options




Map Legend


Flown Route
Filed Route
Departure Airport
Arrival Airport
Navaid (VOR, NDB)
Fix

Horizontal Profiles

Position Reports

Time Latitude Longitude Heading Altitude Ground
Speed
12-Feb-23 18:31 48.793511 -122.531610 223 161ft 0kts
12-Feb-23 18:32 48.793511 -122.531610 223 161ft 0kts
12-Feb-23 18:33 48.793511 -122.531610 223 161ft 0kts
12-Feb-23 18:34 48.793511 -122.531610 223 161ft 0kts
12-Feb-23 18:35 48.793511 -122.531610 223 161ft 0kts
12-Feb-23 18:36 48.793511 -122.531610 223 161ft 0kts
12-Feb-23 18:37 48.793511 -122.531610 223 161ft 0kts
12-Feb-23 18:38 48.793511 -122.531610 223 161ft 0kts
12-Feb-23 18:39 48.793511 -122.531610 223 161ft 0kts
12-Feb-23 18:40 48.793511 -122.531610 223 161ft 0kts
12-Feb-23 18:41 48.793511 -122.531610 223 161ft 0kts
12-Feb-23 18:42 48.793426 -122.531731 221 161ft 9kts
12-Feb-23 18:43 48.791449 -122.535418 220 161ft 13kts
12-Feb-23 18:44 48.787931 -122.535799 178 167ft 12kts
12-Feb-23 18:45 48.783623 -122.536277 270 169ft 0kts
12-Feb-23 18:46 48.783623 -122.536277 270 169ft 0kts
12-Feb-23 18:47 48.783623 -122.536277 270 169ft 0kts
12-Feb-23 18:48 48.784717 -122.537486 359 169ft 27kts
12-Feb-23 18:49 48.808527 -122.542294 305 1187ft 109kts
12-Feb-23 18:50 48.792121 -122.574047 197 2642ft 123kts
12-Feb-23 18:51 48.755721 -122.579112 179 3859ft 136kts
12-Feb-23 18:52 48.717644 -122.579219 179 4975ft 146kts
12-Feb-23 18:53 48.677831 -122.579178 179 4990ft 139kts
12-Feb-23 18:54 48.640079 -122.588279 194 4990ft 138kts
12-Feb-23 18:55 48.602975 -122.602942 194 4990ft 138kts
12-Feb-23 18:56 48.565674 -122.616512 192 4990ft 138kts
12-Feb-23 18:57 48.528416 -122.629123 192 4990ft 138kts
12-Feb-23 18:58 48.490647 -122.639447 191 4990ft 138kts
12-Feb-23 18:59 48.453304 -122.652176 192 4990ft 138kts
12-Feb-23 19:00 48.416014 -122.665132 192 4990ft 138kts
12-Feb-23 19:01 48.376840 -122.678725 192 4991ft 150kts
12-Feb-23 19:02 48.335791 -122.692952 192 4990ft 152kts
12-Feb-23 19:03 48.294568 -122.707215 192 4990ft 152kts
12-Feb-23 19:04 48.253182 -122.721510 192 4990ft 152kts
12-Feb-23 19:05 48.211097 -122.720366 175 4990ft 152kts
12-Feb-23 19:06 48.168847 -122.715870 175 4990ft 152kts
12-Feb-23 19:07 48.127246 -122.711244 175 4990ft 148kts
12-Feb-23 19:08 48.086183 -122.706651 175 4990ft 148kts
12-Feb-23 19:09 48.045206 -122.702072 175 4990ft 148kts
12-Feb-23 19:10 48.004145 -122.697491 175 4990ft 148kts
12-Feb-23 19:11 47.963169 -122.692927 175 4990ft 148kts
12-Feb-23 19:12 47.922227 -122.688369 175 4990ft 148kts
12-Feb-23 19:13 47.881295 -122.683823 175 4990ft 148kts
12-Feb-23 19:14 47.842528 -122.671054 129 4991ft 147kts
12-Feb-23 19:15 47.819553 -122.625545 126 4986ft 121kts
12-Feb-23 19:16 47.801670 -122.589451 126 4387ft 107kts
12-Feb-23 19:17 47.783248 -122.552267 126 3889ft 112kts
12-Feb-23 19:18 47.764440 -122.514320 126 3263ft 106kts
12-Feb-23 19:19 47.744697 -122.484153 150 2984ft 103kts
12-Feb-23 19:20 47.717417 -122.461973 150 2659ft 117kts
12-Feb-23 19:21 47.689135 -122.437422 149 2271ft 119kts
12-Feb-23 19:22 47.660836 -122.413357 149 1728ft 116kts
12-Feb-23 19:23 47.633765 -122.390376 149 1563ft 111kts
12-Feb-23 19:24 47.606560 -122.367210 150 1490ft 113kts
12-Feb-23 19:25 47.584840 -122.348807 150 964ft 68kts
12-Feb-23 19:26 47.566972 -122.333723 150 642ft 81kts
12-Feb-23 19:27 47.546318 -122.316208 148 168ft 80kts
12-Feb-23 19:28 47.537784 -122.307828 60 17ft 0kts
12-Feb-23 19:29 47.537784 -122.307828 60 17ft 0kts
12-Feb-23 19:30 47.538816 -122.306706 134 20ft 0kts

Navigation Log

Ident Type
Flight plan parsing failed, navigation log unavailable